createdAt,value
2018-08-09T00:00:30.885Z,76.10
2018-08-09T00:02:58.402Z,76.10
2018-08-09T00:05:25.931Z,76.40
2018-08-09T00:07:53.470Z,76.70
2018-08-09T00:10:20.976Z,76.50
2018-08-09T00:12:48.555Z,76.00
2018-08-09T00:15:16.170Z,75.50
2018-08-09T00:17:43.837Z,75.40
2018-08-09T00:20:11.762Z,75.60
2018-08-09T00:22:39.298Z,75.80
2018-08-09T00:25:07.340Z,76.00
2018-08-09T00:27:34.911Z,75.60
2018-08-09T00:30:02.614Z,75.60
2018-08-09T00:32:30.086Z,76.30
2018-08-09T00:34:57.602Z,76.50
2018-08-09T00:37:25.152Z,76.50
2018-08-09T00:39:52.725Z,76.10
2018-08-09T00:42:20.224Z,76.20
2018-08-09T00:44:47.917Z,76.20
2018-08-09T00:47:15.453Z,76.20
2018-08-09T00:49:42.957Z,76.40
2018-08-09T00:52:10.505Z,76.40
2018-08-09T00:54:38.077Z,76.60
2018-08-09T00:57:05.625Z,76.60
2018-08-09T00:59:33.178Z,76.80
2018-08-09T01:02:00.709Z,76.70
2018-08-09T01:04:28.265Z,76.70
2018-08-09T01:06:55.845Z,76.60
2018-08-09T01:09:23.371Z,76.50
2018-08-09T01:11:50.916Z,76.60
2018-08-09T01:14:18.436Z,76.60
2018-08-09T01:16:45.958Z,76.80
2018-08-09T01:19:13.484Z,76.90
2018-08-09T01:21:41.001Z,76.40
2018-08-09T01:24:08.497Z,76.00
2018-08-09T01:26:36.079Z,76.10
2018-08-09T01:29:03.617Z,76.30
2018-08-09T01:31:34.197Z,76.70
2018-08-09T01:34:03.272Z,76.80
2018-08-09T01:36:31.115Z,77.00
2018-08-09T01:38:58.608Z,76.90
2018-08-09T01:41:26.300Z,76.70
2018-08-09T01:44:03.418Z,77.00
2018-08-09T01:46:31.114Z,77.10
2018-08-09T01:48:59.192Z,77.20
2018-08-09T01:51:27.483Z,77.20
2018-08-09T01:53:55.101Z,76.80
2018-08-09T01:56:22.694Z,76.40
2018-08-09T01:58:51.012Z,76.60
2018-08-09T02:01:19.041Z,76.70
2018-08-09T02:03:46.562Z,76.90
2018-08-09T02:06:15.240Z,76.60
2018-08-09T02:08:42.878Z,76.50
2018-08-09T02:11:11.320Z,76.60
2018-08-09T02:13:38.902Z,76.60
2018-08-09T02:16:06.616Z,76.70
2018-08-09T02:18:34.347Z,76.80
2018-08-09T02:21:01.854Z,76.50
2018-08-09T02:23:29.406Z,76.30
2018-08-09T02:25:56.974Z,76.40
2018-08-09T02:28:24.483Z,76.30
2018-08-09T02:30:51.984Z,76.30
2018-08-09T02:33:19.539Z,76.20
2018-08-09T02:35:47.084Z,76.40
2018-08-09T02:38:14.612Z,76.70
2018-08-09T02:40:42.179Z,76.80
2018-08-09T02:43:09.721Z,77.30
2018-08-09T02:45:37.261Z,77.40
2018-08-09T02:48:05.284Z,77.30
2018-08-09T02:50:32.805Z,77.30
2018-08-09T02:53:00.337Z,77.40
2018-08-09T02:55:27.874Z,77.30
2018-08-09T02:57:55.426Z,77.10
2018-08-09T03:00:22.914Z,77.10
2018-08-09T03:02:50.444Z,77.30
2018-08-09T03:05:17.994Z,77.20
2018-08-09T03:07:45.514Z,77.20
2018-08-09T03:10:13.029Z,77.10
2018-08-09T03:12:40.548Z,76.80
2018-08-09T03:15:08.079Z,76.40
2018-08-09T03:17:35.593Z,76.40
2018-08-09T03:20:03.221Z,76.70
2018-08-09T03:22:30.729Z,77.20
2018-08-09T03:24:58.273Z,77.50
2018-08-09T03:27:25.769Z,77.60
2018-08-09T03:29:53.329Z,77.60
2018-08-09T03:32:20.838Z,77.40
2018-08-09T03:34:48.341Z,77.10
2018-08-09T03:37:15.821Z,76.90
2018-08-09T03:39:43.375Z,76.70
2018-08-09T03:42:10.895Z,76.80
2018-08-09T03:44:38.381Z,77.10
2018-08-09T03:47:05.873Z,77.60
2018-08-09T03:49:33.412Z,77.80
2018-08-09T03:52:00.921Z,77.90
2018-08-09T03:54:28.431Z,77.90
2018-08-09T03:56:56.010Z,77.80
2018-08-09T03:59:23.508Z,77.50
2018-08-09T04:01:51.001Z,77.30
2018-08-09T04:04:18.523Z,77.50
2018-08-09T04:06:46.049Z,77.60
2018-08-09T04:09:13.576Z,77.70
2018-08-09T04:11:41.105Z,77.70
2018-08-09T04:14:09.190Z,77.80
2018-08-09T04:16:36.682Z,77.80
2018-08-09T04:19:04.239Z,78.00
2018-08-09T04:21:31.728Z,78.20
2018-08-09T04:23:59.189Z,78.30
2018-08-09T04:26:26.838Z,78.30
2018-08-09T04:28:54.308Z,78.60
2018-08-09T04:31:21.855Z,78.40
2018-08-09T04:33:49.399Z,77.90
2018-08-09T04:36:16.922Z,77.80
2018-08-09T04:38:44.437Z,77.90
2018-08-09T04:41:11.963Z,78.00
2018-08-09T04:43:39.473Z,78.10
2018-08-09T04:46:07.359Z,78.10
2018-08-09T04:48:34.978Z,78.10
2018-08-09T04:51:02.519Z,78.10
2018-08-09T04:53:30.044Z,78.10
2018-08-09T04:55:57.584Z,78.10
2018-08-09T04:58:25.172Z,78.20
2018-08-09T05:00:52.693Z,78.30
2018-08-09T05:03:20.248Z,78.30
2018-08-09T05:05:47.844Z,78.50
2018-08-09T05:08:15.408Z,78.20
2018-08-09T05:10:42.952Z,78.30
2018-08-09T05:13:10.454Z,78.10
2018-08-09T05:15:37.980Z,78.20
2018-08-09T05:18:06.411Z,78.10
2018-08-09T05:20:33.962Z,78.10
2018-08-09T05:23:01.548Z,78.10
2018-08-09T05:25:29.049Z,78.10
2018-08-09T05:27:56.528Z,78.10
2018-08-09T05:30:24.089Z,78.20
2018-08-09T05:32:51.746Z,78.40
2018-08-09T05:35:19.247Z,78.50
2018-08-09T05:37:46.799Z,78.10
2018-08-09T05:40:14.347Z,78.20
2018-08-09T05:42:41.856Z,78.00
2018-08-09T05:45:09.378Z,78.00
2018-08-09T05:47:36.917Z,78.10
2018-08-09T05:50:04.793Z,78.20
2018-08-09T05:52:32.297Z,78.40
2018-08-09T05:54:59.845Z,78.50
2018-08-09T05:57:27.402Z,78.30
2018-08-09T05:59:54.913Z,78.20
2018-08-09T06:02:22.489Z,78.30
2018-08-09T06:04:50.021Z,78.50
2018-08-09T06:07:17.512Z,78.40
2018-08-09T06:09:45.059Z,78.60
2018-08-09T06:12:12.637Z,78.60
2018-08-09T06:14:40.141Z,78.40
2018-08-09T06:17:08.059Z,78.20
2018-08-09T06:19:35.564Z,78.00
2018-08-09T06:22:03.109Z,77.70
2018-08-09T06:24:30.706Z,77.60
2018-08-09T06:26:58.251Z,77.80
2018-08-09T06:29:25.749Z,78.00
2018-08-09T06:31:53.362Z,77.90
2018-08-09T06:34:20.882Z,77.70
2018-08-09T06:36:48.471Z,77.80
2018-08-09T06:39:16.154Z,77.40
2018-08-09T06:41:43.710Z,77.40
2018-08-09T06:44:11.264Z,77.70
2018-08-09T06:46:38.916Z,77.80
2018-08-09T06:49:06.527Z,77.20
2018-08-09T06:51:34.124Z,77.30
2018-08-09T06:54:01.697Z,77.30
2018-08-09T06:56:29.241Z,77.40
2018-08-09T06:58:56.849Z,77.20
2018-08-09T07:01:24.391Z,77.10
2018-08-09T07:03:51.953Z,76.80
2018-08-09T07:06:19.521Z,76.50
2018-08-09T07:08:47.073Z,76.40
2018-08-09T07:11:14.632Z,76.30
2018-08-09T07:13:42.168Z,75.20
2018-08-09T07:16:09.812Z,75.00
2018-08-09T07:18:37.348Z,74.50
2018-08-09T07:21:04.919Z,74.10
2018-08-09T07:23:32.484Z,73.90
2018-08-09T07:26:00.041Z,73.80
2018-08-09T07:28:27.645Z,72.70
2018-08-09T07:30:55.287Z,72.30
2018-08-09T07:33:22.790Z,71.90
2018-08-09T07:35:50.447Z,71.60
2018-08-09T07:38:17.991Z,71.70
2018-08-09T07:40:45.622Z,72.20
2018-08-09T07:43:13.191Z,72.30
2018-08-09T07:45:40.782Z,72.50
2018-08-09T07:48:08.465Z,72.30
2018-08-09T07:50:35.998Z,72.30
2018-08-09T07:53:03.704Z,71.90
2018-08-09T07:55:31.290Z,71.90
2018-08-09T07:57:58.857Z,70.90
2018-08-09T08:00:26.405Z,70.50
2018-08-09T08:02:53.974Z,70.70
2018-08-09T08:05:21.514Z,68.60
2018-08-09T08:07:49.071Z,68.90
2018-08-09T08:10:16.618Z,69.60
2018-08-09T08:12:44.171Z,69.20
2018-08-09T08:15:11.738Z,68.60
2018-08-09T08:17:39.552Z,68.50
2018-08-09T08:20:07.616Z,68.40
2018-08-09T08:22:35.261Z,67.90
2018-08-09T08:25:03.101Z,67.00
2018-08-09T08:27:30.804Z,67.00
2018-08-09T08:29:58.456Z,66.70
2018-08-09T08:32:26.066Z,66.70
2018-08-09T08:34:53.654Z,65.80
2018-08-09T08:37:21.253Z,65.20
2018-08-09T08:39:48.862Z,64.30
2018-08-09T08:42:16.404Z,64.60
2018-08-09T08:44:43.967Z,64.70
2018-08-09T08:47:11.557Z,64.60
2018-08-09T08:49:39.109Z,63.70
2018-08-09T08:52:06.750Z,63.80
2018-08-09T08:54:34.340Z,64.20
2018-08-09T08:57:02.031Z,63.50
2018-08-09T08:59:29.671Z,61.50
2018-08-09T09:01:57.228Z,61.50
2018-08-09T09:04:24.845Z,61.40
2018-08-09T09:06:52.460Z,61.20
2018-08-09T09:09:20.020Z,61.40
2018-08-09T09:11:47.660Z,58.40
2018-08-09T09:14:15.211Z,57.70
2018-08-09T09:16:42.710Z,59.00
2018-08-09T09:19:10.240Z,57.20
2018-08-09T09:21:37.617Z,57.60
2018-08-09T09:24:05.257Z,57.00
2018-08-09T09:26:32.762Z,56.90
2018-08-09T09:29:00.254Z,56.80
2018-08-09T09:31:27.869Z,56.00
2018-08-09T09:33:55.332Z,56.70
2018-08-09T09:36:22.923Z,56.40
2018-08-09T09:38:50.416Z,55.60
2018-08-09T09:41:17.891Z,55.00
2018-08-09T09:43:45.424Z,54.80
2018-08-09T09:46:12.927Z,55.50
2018-08-09T09:48:40.497Z,54.30
2018-08-09T09:51:07.966Z,53.70
2018-08-09T09:53:35.548Z,54.20
2018-08-09T09:56:03.016Z,54.00
2018-08-09T09:58:30.490Z,53.90
2018-08-09T10:01:03.569Z,54.50
2018-08-09T10:03:31.059Z,53.00
2018-08-09T10:05:58.547Z,53.50
2018-08-09T10:08:26.127Z,53.30
2018-08-09T10:10:53.588Z,53.10
2018-08-09T10:13:21.094Z,53.00
2018-08-09T10:15:48.553Z,54.00
2018-08-09T10:18:16.014Z,53.80
2018-08-09T10:20:43.507Z,54.30
2018-08-09T10:23:11.114Z,53.30
2018-08-09T10:25:38.555Z,51.70
2018-08-09T10:28:06.093Z,53.00
2018-08-09T10:30:33.583Z,53.30
2018-08-09T10:33:01.064Z,52.80
2018-08-09T10:35:28.590Z,51.50
2018-08-09T10:37:56.019Z,52.70
2018-08-09T10:40:23.544Z,51.50
2018-08-09T10:42:51.016Z,52.60
2018-08-09T10:45:18.447Z,52.60
2018-08-09T10:47:46.276Z,52.50
2018-08-09T10:50:13.761Z,52.70
2018-08-09T10:52:41.248Z,52.20
2018-08-09T10:55:08.732Z,50.80
2018-08-09T10:57:36.188Z,50.50
2018-08-09T11:00:05.974Z,50.10
2018-08-09T11:02:33.395Z,47.10
2018-08-09T11:05:00.883Z,46.90
2018-08-09T11:07:28.508Z,44.80
2018-08-09T11:09:55.988Z,41.70
2018-08-09T11:12:23.542Z,35.80
2018-08-09T11:14:51.004Z,33.50
2018-08-09T11:17:18.444Z,30.80
2018-08-09T11:19:46.044Z,28.80
2018-08-09T11:22:13.535Z,26.10
2018-08-09T11:24:41.001Z,23.40
2018-08-09T11:27:08.442Z,23.60
2018-08-09T11:29:35.876Z,20.70
2018-08-09T11:32:03.464Z,21.20
2018-08-09T11:34:30.937Z,20.50
2018-08-09T11:36:58.444Z,20.90
2018-08-09T11:39:25.969Z,20.20
2018-08-09T11:41:53.415Z,18.50
2018-08-09T11:44:20.904Z,19.40
2018-08-09T11:46:48.344Z,19.10
2018-08-09T11:49:15.834Z,19.90
2018-08-09T11:51:43.271Z,19.50
2018-08-09T11:54:10.696Z,17.80
2018-08-09T11:56:38.275Z,18.90
2018-08-09T11:59:05.844Z,17.80
2018-08-09T12:01:33.483Z,18.20
2018-08-09T12:04:01.051Z,17.80
2018-08-09T12:06:28.657Z,18.30
2018-08-09T12:08:56.113Z,18.00
2018-08-09T12:11:23.692Z,17.30
2018-08-09T12:13:51.216Z,18.20
2018-08-09T12:16:18.758Z,17.90
2018-08-09T12:18:46.234Z,18.50
2018-08-09T12:21:13.822Z,18.50
2018-08-09T12:23:41.276Z,17.80
2018-08-09T12:26:08.842Z,18.20
2018-08-09T12:28:36.507Z,17.90
2018-08-09T12:31:04.119Z,18.20
2018-08-09T12:33:31.643Z,17.90
2018-08-09T12:35:59.273Z,17.50
2018-08-09T12:38:26.843Z,17.10
2018-08-09T12:40:54.393Z,17.40
2018-08-09T12:43:21.888Z,17.90
2018-08-09T12:45:49.505Z,18.20
2018-08-09T12:48:17.144Z,18.20
2018-08-09T12:50:44.765Z,18.70
2018-08-09T12:53:12.352Z,18.40
2018-08-09T12:55:40.000Z,18.30
2018-08-09T12:58:07.646Z,17.90
2018-08-09T13:00:35.307Z,18.20
2018-08-09T13:03:02.946Z,18.30
2018-08-09T13:05:30.519Z,18.40
2018-08-09T13:07:58.029Z,19.10
2018-08-09T13:10:25.608Z,19.40
2018-08-09T13:12:53.088Z,18.00
2018-08-09T13:15:20.665Z,19.00
2018-08-09T13:17:48.203Z,19.20
2018-08-09T13:20:18.114Z,20.10
2018-08-09T13:22:46.050Z,18.90
2018-08-09T13:25:13.560Z,18.80
2018-08-09T13:27:41.070Z,19.50
2018-08-09T13:30:11.470Z,18.90
2018-08-09T13:32:38.961Z,19.70
2018-08-09T13:35:06.946Z,20.40
2018-08-09T13:37:34.477Z,20.30
2018-08-09T13:40:02.041Z,21.00
2018-08-09T13:42:29.515Z,21.10
2018-08-09T13:44:56.931Z,22.40
2018-08-09T13:47:24.435Z,22.90
2018-08-09T13:49:52.040Z,21.60
2018-08-09T13:52:19.520Z,22.00
2018-08-09T13:54:47.105Z,24.60
2018-08-09T13:57:14.541Z,25.30
2018-08-09T13:59:42.107Z,24.50
2018-08-09T14:02:09.653Z,24.00
2018-08-09T14:04:37.134Z,25.00
2018-08-09T14:07:04.959Z,25.80
2018-08-09T14:09:32.472Z,26.70
2018-08-09T14:11:59.989Z,27.20
2018-08-09T14:14:27.453Z,28.20
2018-08-09T14:16:54.999Z,27.10
2018-08-09T14:19:22.445Z,26.30
2018-08-09T14:21:49.893Z,27.00
2018-08-09T14:24:17.419Z,27.80
2018-08-09T14:26:44.939Z,30.50
2018-08-09T14:29:12.535Z,30.10
2018-08-09T14:31:40.029Z,28.20
2018-08-09T14:34:07.585Z,29.70
2018-08-09T14:36:35.110Z,31.30
2018-08-09T14:39:05.018Z,30.60
2018-08-09T14:41:32.542Z,31.00
2018-08-09T14:44:00.044Z,29.70
2018-08-09T14:46:27.538Z,31.20
2018-08-09T14:48:55.047Z,33.30
2018-08-09T14:51:22.570Z,33.70
2018-08-09T14:53:50.051Z,31.20
2018-08-09T14:56:17.542Z,29.60
2018-08-09T14:58:45.070Z,31.30
2018-08-09T15:01:12.569Z,34.60
2018-08-09T15:03:40.000Z,38.50
2018-08-09T15:06:07.580Z,38.80
2018-08-09T15:08:35.125Z,40.40
2018-08-09T15:11:02.741Z,40.50
2018-08-09T15:13:30.658Z,42.80
2018-08-09T15:15:58.230Z,42.30
2018-08-09T15:18:32.974Z,42.90
2018-08-09T15:21:00.438Z,44.40
2018-08-09T15:23:28.083Z,45.30
2018-08-09T15:25:55.672Z,44.70
2018-08-09T15:28:23.306Z,45.00
2018-08-09T15:30:50.950Z,45.90
2018-08-09T15:33:18.502Z,46.00
2018-08-09T15:35:46.034Z,47.20
2018-08-09T15:38:13.519Z,46.50
2018-08-09T15:40:41.037Z,46.50
2018-08-09T15:43:08.618Z,46.30
2018-08-09T15:45:36.187Z,47.10
2018-08-09T15:48:04.490Z,47.70
2018-08-09T15:50:32.124Z,47.40
2018-08-09T15:52:59.692Z,47.20
2018-08-09T15:55:27.291Z,48.00
2018-08-09T15:57:54.766Z,47.20
2018-08-09T16:00:23.339Z,47.10
2018-08-09T16:02:50.894Z,47.80
2018-08-09T16:05:18.428Z,47.00
2018-08-09T16:07:46.263Z,46.70
2018-08-09T16:10:15.061Z,45.80
2018-08-09T16:12:42.538Z,45.20
2018-08-09T16:15:12.020Z,46.10
2018-08-09T16:17:39.602Z,45.10
2018-08-09T16:20:08.165Z,45.50
2018-08-09T16:22:35.752Z,45.50
2018-08-09T16:25:04.394Z,43.00
2018-08-09T16:27:31.872Z,43.20
2018-08-09T16:29:59.351Z,42.00
2018-08-09T16:32:26.984Z,43.60
2018-08-09T16:34:54.541Z,44.60
2018-08-09T16:37:22.146Z,43.30
2018-08-09T16:39:49.702Z,44.40
2018-08-09T16:42:17.275Z,44.40
2018-08-09T16:44:44.866Z,43.20
2018-08-09T16:47:12.568Z,43.70
2018-08-09T16:49:40.126Z,43.70
2018-08-09T16:52:07.750Z,44.30
2018-08-09T16:54:35.390Z,45.20
2018-08-09T16:57:03.012Z,45.00
2018-08-09T16:59:30.612Z,42.60
2018-08-09T17:01:58.288Z,42.40
2018-08-09T17:04:26.403Z,42.30
2018-08-09T17:06:54.078Z,42.90
2018-08-09T17:09:21.722Z,43.40
2018-08-09T17:11:49.481Z,44.60
2018-08-09T17:14:17.072Z,42.20
2018-08-09T17:16:44.749Z,43.50
2018-08-09T17:19:12.385Z,43.10
2018-08-09T17:21:40.058Z,44.00
2018-08-09T17:24:09.148Z,45.80
2018-08-09T17:26:36.942Z,46.20
2018-08-09T17:29:05.212Z,44.40
2018-08-09T17:31:32.853Z,44.70
2018-08-09T17:34:00.382Z,45.40
2018-08-09T17:36:28.079Z,46.30
2018-08-09T17:38:55.662Z,44.80
2018-08-09T17:41:23.362Z,47.90
2018-08-09T17:43:50.988Z,46.80
2018-08-09T17:46:18.541Z,46.30
2018-08-09T17:48:46.117Z,46.30
2018-08-09T17:51:13.618Z,45.40
2018-08-09T17:53:41.220Z,45.70
2018-08-09T17:56:08.886Z,44.70
2018-08-09T17:58:36.511Z,45.30
2018-08-09T18:01:04.861Z,46.30
2018-08-09T18:03:32.461Z,47.40
2018-08-09T18:06:00.099Z,48.50
2018-08-09T18:08:27.679Z,47.30
2018-08-09T18:10:55.246Z,47.80
2018-08-09T18:13:22.797Z,49.50
2018-08-09T18:15:50.376Z,51.10
2018-08-09T18:18:17.862Z,52.90
2018-08-09T18:20:45.342Z,54.00
2018-08-09T18:23:12.842Z,53.20
2018-08-09T18:25:40.449Z,53.20
2018-08-09T18:28:08.830Z,53.90
2018-08-09T18:30:36.399Z,53.20
2018-08-09T18:33:03.994Z,53.90
2018-08-09T18:35:31.686Z,54.40
2018-08-09T18:37:59.318Z,54.40
2018-08-09T18:40:27.611Z,56.00
2018-08-09T18:42:55.262Z,55.70
2018-08-09T18:45:23.076Z,55.20
2018-08-09T18:47:50.665Z,56.90
2018-08-09T18:50:21.645Z,55.20
2018-08-09T18:52:49.186Z,56.70
2018-08-09T18:55:17.639Z,57.00
2018-08-09T18:57:45.219Z,57.00
2018-08-09T19:00:16.266Z,57.10
2018-08-09T19:02:44.521Z,57.90
2018-08-09T19:05:13.078Z,58.10
2018-08-09T19:07:40.894Z,59.00
2018-08-09T19:10:15.542Z,59.90
2018-08-09T19:12:43.369Z,61.00
2018-08-09T19:15:11.922Z,62.30
2018-08-09T19:17:39.864Z,62.20
2018-08-09T19:20:12.758Z,63.10
2018-08-09T19:22:40.599Z,62.90
2018-08-09T19:25:08.715Z,64.50
2018-08-09T19:27:36.569Z,65.00
2018-08-09T19:30:05.329Z,65.10
2018-08-09T19:32:33.046Z,64.80
2018-08-09T19:35:00.791Z,63.40
2018-08-09T19:37:28.501Z,64.30
2018-08-09T19:39:56.170Z,64.90
2018-08-09T19:42:50.188Z,65.70
2018-08-09T19:45:18.682Z,65.60
2018-08-09T19:47:46.365Z,66.70
2018-08-09T19:50:15.925Z,66.40
2018-08-09T19:52:43.913Z,66.60
2018-08-09T19:55:13.828Z,67.50
2018-08-09T19:57:42.635Z,67.40
2018-08-09T20:00:12.427Z,67.60
2018-08-09T20:02:40.024Z,68.40
2018-08-09T20:05:08.835Z,67.90
2018-08-09T20:07:36.436Z,67.40
2018-08-09T20:10:04.700Z,67.20
2018-08-09T20:12:32.403Z,68.10
2018-08-09T20:15:00.275Z,68.10
2018-08-09T20:17:27.920Z,68.40
2018-08-09T20:19:55.696Z,69.00
2018-08-09T20:22:23.387Z,68.60
2018-08-09T20:24:50.942Z,69.40
2018-08-09T20:27:18.657Z,69.80
2018-08-09T20:29:46.306Z,69.60
2018-08-09T20:32:13.797Z,69.50
2018-08-09T20:34:41.367Z,69.50
2018-08-09T20:37:15.419Z,71.10
2018-08-09T20:39:42.979Z,70.40
2018-08-09T20:42:10.519Z,70.60
2018-08-09T20:44:38.056Z,70.70
2018-08-09T20:47:05.522Z,71.10
2018-08-09T20:49:32.951Z,71.50
2018-08-09T20:52:00.539Z,70.40
2018-08-09T20:54:28.062Z,70.70
2018-08-09T20:56:55.798Z,69.90
2018-08-09T20:59:23.728Z,69.80
2018-08-09T21:01:51.336Z,70.70
2018-08-09T21:04:18.857Z,69.50
2018-08-09T21:06:46.491Z,71.00
2018-08-09T21:09:14.098Z,70.00
2018-08-09T21:11:42.178Z,69.60
2018-08-09T21:14:09.687Z,69.90
2018-08-09T21:16:37.262Z,71.00
2018-08-09T21:19:04.841Z,71.20
2018-08-09T21:21:32.361Z,71.40
2018-08-09T21:24:00.166Z,72.10
2018-08-09T21:26:27.603Z,71.20
2018-08-09T21:28:55.594Z,71.70
2018-08-09T21:31:23.169Z,72.50
2018-08-09T21:33:50.606Z,71.50
2018-08-09T21:36:18.167Z,72.40
2018-08-09T21:38:46.022Z,72.80
2018-08-09T21:41:13.653Z,72.90
2018-08-09T21:43:41.256Z,72.40
2018-08-09T21:46:08.896Z,73.00
2018-08-09T21:48:36.559Z,72.20
2018-08-09T21:51:04.122Z,72.60
2018-08-09T21:53:31.750Z,72.90
2018-08-09T21:55:59.285Z,72.20
2018-08-09T21:58:26.938Z,72.10
2018-08-09T22:01:03.844Z,72.20
2018-08-09T22:03:33.454Z,72.00
2018-08-09T22:06:06.576Z,72.10
2018-08-09T22:08:39.727Z,72.40
2018-08-09T22:11:13.858Z,72.30
2018-08-09T22:13:47.144Z,72.30
2018-08-09T22:16:20.357Z,72.10
2018-08-09T22:18:53.478Z,71.90
2018-08-09T22:21:26.677Z,72.00
2018-08-09T22:23:54.343Z,72.90
2018-08-09T22:26:21.964Z,72.10
2018-08-09T22:28:49.524Z,71.70
2018-08-09T22:31:17.148Z,72.80
2018-08-09T22:33:45.032Z,72.80
2018-08-09T22:36:12.622Z,72.10
2018-08-09T22:38:40.273Z,71.90
2018-08-09T22:41:07.852Z,72.90
2018-08-09T22:43:35.460Z,73.50
2018-08-09T22:46:03.092Z,72.90
2018-08-09T22:48:30.811Z,71.90
2018-08-09T22:50:58.482Z,72.10
2018-08-09T22:53:26.036Z,72.40
2018-08-09T22:55:53.612Z,72.40
2018-08-09T22:58:21.113Z,72.50
2018-08-09T23:00:48.692Z,73.00
2018-08-09T23:03:16.336Z,73.20
2018-08-09T23:05:43.913Z,72.80
2018-08-09T23:08:12.865Z,72.80
2018-08-09T23:10:41.387Z,73.10
2018-08-09T23:13:09.965Z,72.60
2018-08-09T23:15:37.565Z,72.90
2018-08-09T23:18:06.262Z,73.00
2018-08-09T23:20:33.841Z,72.90
2018-08-09T23:23:01.379Z,73.10
2018-08-09T23:25:28.965Z,72.60
2018-08-09T23:27:56.561Z,72.50
2018-08-09T23:30:24.188Z,73.10
2018-08-09T23:32:51.726Z,73.20
2018-08-09T23:35:19.301Z,72.50
2018-08-09T23:37:46.815Z,73.50
2018-08-09T23:40:14.363Z,72.90
2018-08-09T23:42:41.869Z,72.90
2018-08-09T23:45:09.782Z,73.40
2018-08-09T23:47:39.378Z,73.70
2018-08-09T23:50:08.659Z,73.70
2018-08-09T23:52:37.081Z,74.40
2018-08-09T23:55:05.450Z,73.30
2018-08-09T23:57:33.005Z,73.30
